sensor_id;sensor_type;location;lat;lon;timestamp;P1;durP1;ratioP1;P2;durP2;ratioP2
673;SDS011;319;48.764;9.174;2023-02-28T00:01:05;1.50;;;1.50;;
673;SDS011;319;48.764;9.174;2023-02-28T00:03:32;1.40;;;1.40;;
673;SDS011;319;48.764;9.174;2023-02-28T00:06:01;1.40;;;1.40;;
673;SDS011;319;48.764;9.174;2023-02-28T00:08:28;2.00;;;2.00;;
673;SDS011;319;48.764;9.174;2023-02-28T00:10:55;3.40;;;3.30;;
673;SDS011;319;48.764;9.174;2023-02-28T00:13:22;3.00;;;3.00;;
673;SDS011;319;48.764;9.174;2023-02-28T00:15:57;2.90;;;2.90;;
673;SDS011;319;48.764;9.174;2023-02-28T00:18:25;2.30;;;2.30;;
673;SDS011;319;48.764;9.174;2023-02-28T00:20:52;1.90;;;1.90;;
673;SDS011;319;48.764;9.174;2023-02-28T00:23:20;2.20;;;2.20;;
673;SDS011;319;48.764;9.174;2023-02-28T00:25:47;1.90;;;1.90;;
673;SDS011;319;48.764;9.174;2023-02-28T00:28:15;1.60;;;1.60;;
673;SDS011;319;48.764;9.174;2023-02-28T00:30:42;1.50;;;1.50;;
673;SDS011;319;48.764;9.174;2023-02-28T00:33:09;1.50;;;1.50;;
673;SDS011;319;48.764;9.174;2023-02-28T00:35:37;1.57;;;1.57;;
673;SDS011;319;48.764;9.174;2023-02-28T00:38:04;1.40;;;1.40;;
673;SDS011;319;48.764;9.174;2023-02-28T00:40:32;1.50;;;1.50;;
673;SDS011;319;48.764;9.174;2023-02-28T00:42:59;1.40;;;1.40;;
673;SDS011;319;48.764;9.174;2023-02-28T00:45:26;1.50;;;1.50;;
673;SDS011;319;48.764;9.174;2023-02-28T00:47:52;1.50;;;1.50;;
673;SDS011;319;48.764;9.174;2023-02-28T00:50:19;1.50;;;1.50;;
673;SDS011;319;48.764;9.174;2023-02-28T00:52:46;1.50;;;1.50;;
673;SDS011;319;48.764;9.174;2023-02-28T00:55:14;3.53;;;3.43;;
673;SDS011;319;48.764;9.174;2023-02-28T00:57:42;6.00;;;5.90;;
673;SDS011;319;48.764;9.174;2023-02-28T01:00:09;6.20;;;6.10;;
673;SDS011;319;48.764;9.174;2023-02-28T01:02:37;5.43;;;5.33;;
673;SDS011;319;48.764;9.174;2023-02-28T01:05:04;6.50;;;6.40;;
673;SDS011;319;48.764;9.174;2023-02-28T01:07:32;5.20;;;5.10;;
673;SDS011;319;48.764;9.174;2023-02-28T01:09:59;4.93;;;4.83;;
673;SDS011;319;48.764;9.174;2023-02-28T01:12:26;4.70;;;4.60;;
673;SDS011;319;48.764;9.174;2023-02-28T01:14:54;3.47;;;3.37;;
673;SDS011;319;48.764;9.174;2023-02-28T01:17:21;4.50;;;4.40;;
673;SDS011;319;48.764;9.174;2023-02-28T01:19:48;3.80;;;3.70;;
673;SDS011;319;48.764;9.174;2023-02-28T01:22:15;4.40;;;4.30;;
673;SDS011;319;48.764;9.174;2023-02-28T01:24:41;4.20;;;4.10;;
673;SDS011;319;48.764;9.174;2023-02-28T01:27:08;4.00;;;3.90;;
673;SDS011;319;48.764;9.174;2023-02-28T01:29:35;4.97;;;4.87;;
673;SDS011;319;48.764;9.174;2023-02-28T01:32:03;5.00;;;4.90;;
673;SDS011;319;48.764;9.174;2023-02-28T01:34:30;4.97;;;4.87;;
673;SDS011;319;48.764;9.174;2023-02-28T01:36:57;3.50;;;3.40;;
673;SDS011;319;48.764;9.174;2023-02-28T01:39:24;3.53;;;3.43;;
673;SDS011;319;48.764;9.174;2023-02-28T01:41:51;4.60;;;4.50;;
673;SDS011;319;48.764;9.174;2023-02-28T01:47:32;3.90;;;3.80;;
673;SDS011;319;48.764;9.174;2023-02-28T01:50:05;4.73;;;4.63;;
673;SDS011;319;48.764;9.174;2023-02-28T01:52:35;4.27;;;4.17;;
673;SDS011;319;48.764;9.174;2023-02-28T01:55:04;4.40;;;4.30;;
673;SDS011;319;48.764;9.174;2023-02-28T01:57:34;4.10;;;4.00;;
673;SDS011;319;48.764;9.174;2023-02-28T02:00:05;4.20;;;4.10;;
673;SDS011;319;48.764;9.174;2023-02-28T02:02:41;4.20;;;4.10;;
673;SDS011;319;48.764;9.174;2023-02-28T02:05:12;4.20;;;4.10;;
673;SDS011;319;48.764;9.174;2023-02-28T02:07:42;4.50;;;4.40;;
673;SDS011;319;48.764;9.174;2023-02-28T02:10:12;4.40;;;4.30;;
673;SDS011;319;48.764;9.174;2023-02-28T02:12:49;4.20;;;4.10;;
673;SDS011;319;48.764;9.174;2023-02-28T02:15:30;4.10;;;4.00;;
673;SDS011;319;48.764;9.174;2023-02-28T02:18:04;4.53;;;4.43;;
673;SDS011;319;48.764;9.174;2023-02-28T02:20:45;2.10;;;2.10;;
673;SDS011;319;48.764;9.174;2023-02-28T02:26:44;2.10;;;2.10;;
673;SDS011;319;48.764;9.174;2023-02-28T02:29:36;2.00;;;2.00;;
673;SDS011;319;48.764;9.174;2023-02-28T02:32:25;1.90;;;1.90;;
673;SDS011;319;48.764;9.174;2023-02-28T02:35:15;1.90;;;1.90;;
673;SDS011;319;48.764;9.174;2023-02-28T02:37:47;1.83;;;1.83;;
673;SDS011;319;48.764;9.174;2023-02-28T02:40:18;1.90;;;1.90;;
673;SDS011;319;48.764;9.174;2023-02-28T02:42:49;1.80;;;1.80;;
673;SDS011;319;48.764;9.174;2023-02-28T02:45:40;2.00;;;2.00;;
673;SDS011;319;48.764;9.174;2023-02-28T02:48:12;1.90;;;1.90;;
673;SDS011;319;48.764;9.174;2023-02-28T02:50:43;2.10;;;2.10;;
673;SDS011;319;48.764;9.174;2023-02-28T02:53:13;2.50;;;2.50;;
673;SDS011;319;48.764;9.174;2023-02-28T02:55:42;2.93;;;2.93;;
673;SDS011;319;48.764;9.174;2023-02-28T02:58:13;2.40;;;2.40;;
673;SDS011;319;48.764;9.174;2023-02-28T03:00:43;2.83;;;2.83;;
673;SDS011;319;48.764;9.174;2023-02-28T03:03:13;3.40;;;3.30;;
673;SDS011;319;48.764;9.174;2023-02-28T03:05:47;2.40;;;2.40;;
673;SDS011;319;48.764;9.174;2023-02-28T03:08:16;3.20;;;3.10;;
673;SDS011;319;48.764;9.174;2023-02-28T03:10:43;3.37;;;3.27;;
673;SDS011;319;48.764;9.174;2023-02-28T03:13:15;2.60;;;2.60;;
673;SDS011;319;48.764;9.174;2023-02-28T03:18:56;2.80;;;2.80;;
673;SDS011;319;48.764;9.174;2023-02-28T03:21:31;2.80;;;2.80;;
673;SDS011;319;48.764;9.174;2023-02-28T03:24:03;3.10;;;3.10;;
673;SDS011;319;48.764;9.174;2023-02-28T03:26:36;2.10;;;2.10;;
673;SDS011;319;48.764;9.174;2023-02-28T03:29:09;2.30;;;2.30;;
673;SDS011;319;48.764;9.174;2023-02-28T03:31:44;2.20;;;2.20;;
673;SDS011;319;48.764;9.174;2023-02-28T03:34:16;3.80;;;3.70;;
673;SDS011;319;48.764;9.174;2023-02-28T03:36:49;3.73;;;3.63;;
673;SDS011;319;48.764;9.174;2023-02-28T03:39:19;2.90;;;2.90;;
673;SDS011;319;48.764;9.174;2023-02-28T03:41:51;2.60;;;2.60;;
673;SDS011;319;48.764;9.174;2023-02-28T03:44:21;3.00;;;3.00;;
673;SDS011;319;48.764;9.174;2023-02-28T03:46:52;3.50;;;3.40;;
673;SDS011;319;48.764;9.174;2023-02-28T03:49:24;3.00;;;3.00;;
673;SDS011;319;48.764;9.174;2023-02-28T03:51:56;3.07;;;3.07;;
673;SDS011;319;48.764;9.174;2023-02-28T03:54:26;2.87;;;2.87;;
673;SDS011;319;48.764;9.174;2023-02-28T03:56:59;2.90;;;2.90;;
673;SDS011;319;48.764;9.174;2023-02-28T03:59:29;3.00;;;3.00;;
673;SDS011;319;48.764;9.174;2023-02-28T04:02:00;2.80;;;2.80;;
673;SDS011;319;48.764;9.174;2023-02-28T04:04:27;2.60;;;2.60;;
673;SDS011;319;48.764;9.174;2023-02-28T04:07:01;2.70;;;2.70;;
673;SDS011;319;48.764;9.174;2023-02-28T04:09:31;2.60;;;2.60;;
673;SDS011;319;48.764;9.174;2023-02-28T04:11:58;2.90;;;2.90;;
673;SDS011;319;48.764;9.174;2023-02-28T04:14:25;3.10;;;3.10;;
673;SDS011;319;48.764;9.174;2023-02-28T04:16:52;3.47;;;3.37;;
673;SDS011;319;48.764;9.174;2023-02-28T04:19:18;3.40;;;3.30;;
673;SDS011;319;48.764;9.174;2023-02-28T04:21:46;3.60;;;3.50;;
673;SDS011;319;48.764;9.174;2023-02-28T04:24:16;2.90;;;2.90;;
673;SDS011;319;48.764;9.174;2023-02-28T04:26:45;3.20;;;3.10;;
673;SDS011;319;48.764;9.174;2023-02-28T04:29:13;3.50;;;3.40;;
673;SDS011;319;48.764;9.174;2023-02-28T04:31:46;2.90;;;2.90;;
673;SDS011;319;48.764;9.174;2023-02-28T04:34:12;3.50;;;3.40;;
673;SDS011;319;48.764;9.174;2023-02-28T04:36:39;3.50;;;3.40;;
673;SDS011;319;48.764;9.174;2023-02-28T04:39:06;2.97;;;2.97;;
673;SDS011;319;48.764;9.174;2023-02-28T04:41:36;2.90;;;2.90;;
673;SDS011;319;48.764;9.174;2023-02-28T04:44:02;3.10;;;3.00;;
673;SDS011;319;48.764;9.174;2023-02-28T04:46:29;2.70;;;2.70;;
673;SDS011;319;48.764;9.174;2023-02-28T04:48:56;3.20;;;3.10;;
673;SDS011;319;48.764;9.174;2023-02-28T04:51:23;3.30;;;3.20;;
673;SDS011;319;48.764;9.174;2023-02-28T04:53:50;3.07;;;3.07;;
673;SDS011;319;48.764;9.174;2023-02-28T04:56:17;3.20;;;3.10;;
673;SDS011;319;48.764;9.174;2023-02-28T04:58:46;3.40;;;3.30;;
673;SDS011;319;48.764;9.174;2023-02-28T05:01:17;3.00;;;3.00;;
673;SDS011;319;48.764;9.174;2023-02-28T05:03:47;3.00;;;3.00;;
673;SDS011;319;48.764;9.174;2023-02-28T05:06:14;3.00;;;3.00;;
673;SDS011;319;48.764;9.174;2023-02-28T05:08:41;3.10;;;3.00;;
673;SDS011;319;48.764;9.174;2023-02-28T05:11:12;2.90;;;2.90;;
673;SDS011;319;48.764;9.174;2023-02-28T05:13:41;3.30;;;3.20;;
673;SDS011;319;48.764;9.174;2023-02-28T05:16:09;2.90;;;2.90;;
673;SDS011;319;48.764;9.174;2023-02-28T05:18:36;2.80;;;2.80;;
673;SDS011;319;48.764;9.174;2023-02-28T05:21:03;3.00;;;3.00;;
673;SDS011;319;48.764;9.174;2023-02-28T05:23:30;2.70;;;2.70;;
673;SDS011;319;48.764;9.174;2023-02-28T05:25:57;2.90;;;2.90;;
673;SDS011;319;48.764;9.174;2023-02-28T05:28:24;2.80;;;2.80;;
673;SDS011;319;48.764;9.174;2023-02-28T05:30:51;2.57;;;2.57;;
673;SDS011;319;48.764;9.174;2023-02-28T05:33:19;2.40;;;2.40;;
673;SDS011;319;48.764;9.174;2023-02-28T05:35:46;2.70;;;2.70;;
673;SDS011;319;48.764;9.174;2023-02-28T05:38:12;2.90;;;2.90;;
673;SDS011;319;48.764;9.174;2023-02-28T05:40:39;3.27;;;3.17;;
673;SDS011;319;48.764;9.174;2023-02-28T05:43:07;3.40;;;3.30;;
673;SDS011;319;48.764;9.174;2023-02-28T05:45:36;2.80;;;2.80;;
673;SDS011;319;48.764;9.174;2023-02-28T05:48:03;2.80;;;2.80;;
673;SDS011;319;48.764;9.174;2023-02-28T05:50:31;2.57;;;2.57;;
673;SDS011;319;48.764;9.174;2023-02-28T05:52:58;2.83;;;2.83;;
673;SDS011;319;48.764;9.174;2023-02-28T05:55:25;2.60;;;2.60;;
673;SDS011;319;48.764;9.174;2023-02-28T05:57:52;2.40;;;2.40;;
673;SDS011;319;48.764;9.174;2023-02-28T06:00:19;2.50;;;2.50;;
673;SDS011;319;48.764;9.174;2023-02-28T06:02:46;2.97;;;2.97;;
673;SDS011;319;48.764;9.174;2023-02-28T06:05:14;2.70;;;2.70;;
673;SDS011;319;48.764;9.174;2023-02-28T06:07:43;2.73;;;2.73;;
673;SDS011;319;48.764;9.174;2023-02-28T06:10:10;2.50;;;2.50;;
673;SDS011;319;48.764;9.174;2023-02-28T06:12:38;2.90;;;2.90;;
673;SDS011;319;48.764;9.174;2023-02-28T06:15:06;2.90;;;2.90;;
673;SDS011;319;48.764;9.174;2023-02-28T06:17:36;2.73;;;2.73;;
673;SDS011;319;48.764;9.174;2023-02-28T06:20:03;2.60;;;2.60;;
673;SDS011;319;48.764;9.174;2023-02-28T06:22:31;2.70;;;2.70;;
673;SDS011;319;48.764;9.174;2023-02-28T06:24:59;2.80;;;2.80;;
673;SDS011;319;48.764;9.174;2023-02-28T06:27:26;2.90;;;2.90;;
673;SDS011;319;48.764;9.174;2023-02-28T06:29:53;2.90;;;2.90;;
673;SDS011;319;48.764;9.174;2023-02-28T06:32:21;2.80;;;2.80;;
673;SDS011;319;48.764;9.174;2023-02-28T06:34:48;2.83;;;2.83;;
673;SDS011;319;48.764;9.174;2023-02-28T06:37:15;2.60;;;2.60;;
673;SDS011;319;48.764;9.174;2023-02-28T06:39:42;2.60;;;2.60;;
673;SDS011;319;48.764;9.174;2023-02-28T06:42:10;3.00;;;3.00;;
673;SDS011;319;48.764;9.174;2023-02-28T06:44:38;2.80;;;2.80;;
673;SDS011;319;48.764;9.174;2023-02-28T06:47:06;2.90;;;2.90;;
673;SDS011;319;48.764;9.174;2023-02-28T06:49:33;2.60;;;2.60;;
673;SDS011;319;48.764;9.174;2023-02-28T06:52:01;3.20;;;3.10;;
673;SDS011;319;48.764;9.174;2023-02-28T06:54:28;2.73;;;2.73;;
673;SDS011;319;48.764;9.174;2023-02-28T06:56:56;3.00;;;3.00;;
673;SDS011;319;48.764;9.174;2023-02-28T06:59:25;2.70;;;2.70;;
673;SDS011;319;48.764;9.174;2023-02-28T07:01:51;3.00;;;3.00;;
673;SDS011;319;48.764;9.174;2023-02-28T07:04:18;2.90;;;2.90;;
673;SDS011;319;48.764;9.174;2023-02-28T07:06:45;2.80;;;2.80;;
673;SDS011;319;48.764;9.174;2023-02-28T07:09:11;2.70;;;2.70;;
673;SDS011;319;48.764;9.174;2023-02-28T07:11:38;3.00;;;3.00;;
673;SDS011;319;48.764;9.174;2023-02-28T07:14:06;2.80;;;2.80;;
673;SDS011;319;48.764;9.174;2023-02-28T07:16:35;2.70;;;2.70;;
673;SDS011;319;48.764;9.174;2023-02-28T07:19:02;2.90;;;2.90;;
673;SDS011;319;48.764;9.174;2023-02-28T07:21:28;2.70;;;2.70;;
673;SDS011;319;48.764;9.174;2023-02-28T07:23:55;2.80;;;2.80;;
673;SDS011;319;48.764;9.174;2023-02-28T07:26:22;2.80;;;2.80;;
673;SDS011;319;48.764;9.174;2023-02-28T07:28:49;2.87;;;2.87;;
673;SDS011;319;48.764;9.174;2023-02-28T07:31:16;2.60;;;2.60;;
673;SDS011;319;48.764;9.174;2023-02-28T07:33:45;3.20;;;3.10;;
673;SDS011;319;48.764;9.174;2023-02-28T07:36:12;2.90;;;2.90;;
673;SDS011;319;48.764;9.174;2023-02-28T07:38:42;2.77;;;2.77;;
673;SDS011;319;48.764;9.174;2023-02-28T07:41:09;2.90;;;2.90;;
673;SDS011;319;48.764;9.174;2023-02-28T07:43:36;2.70;;;2.70;;
673;SDS011;319;48.764;9.174;2023-02-28T07:46:03;2.80;;;2.80;;
673;SDS011;319;48.764;9.174;2023-02-28T07:48:31;3.20;;;3.10;;
673;SDS011;319;48.764;9.174;2023-02-28T07:50:59;2.80;;;2.80;;
673;SDS011;319;48.764;9.174;2023-02-28T07:53:27;2.80;;;2.80;;
673;SDS011;319;48.764;9.174;2023-02-28T07:55:55;2.90;;;2.90;;
673;SDS011;319;48.764;9.174;2023-02-28T07:58:23;2.70;;;2.70;;
673;SDS011;319;48.764;9.174;2023-02-28T08:00:50;2.90;;;2.90;;
673;SDS011;319;48.764;9.174;2023-02-28T08:03:17;3.27;;;3.17;;
673;SDS011;319;48.764;9.174;2023-02-28T08:05:45;2.70;;;2.70;;
673;SDS011;319;48.764;9.174;2023-02-28T08:08:14;2.83;;;2.83;;
673;SDS011;319;48.764;9.174;2023-02-28T08:10:42;3.00;;;3.00;;
673;SDS011;319;48.764;9.174;2023-02-28T08:13:09;2.70;;;2.70;;
673;SDS011;319;48.764;9.174;2023-02-28T08:15:36;3.00;;;3.00;;
673;SDS011;319;48.764;9.174;2023-02-28T08:18:03;2.83;;;2.83;;
673;SDS011;319;48.764;9.174;2023-02-28T08:20:30;2.90;;;2.90;;
673;SDS011;319;48.764;9.174;2023-02-28T08:22:56;2.93;;;2.93;;
673;SDS011;319;48.764;9.174;2023-02-28T08:25:24;2.80;;;2.80;;
673;SDS011;319;48.764;9.174;2023-02-28T08:27:51;2.70;;;2.70;;
673;SDS011;319;48.764;9.174;2023-02-28T08:30:18;2.50;;;2.50;;
673;SDS011;319;48.764;9.174;2023-02-28T08:32:45;2.70;;;2.70;;
673;SDS011;319;48.764;9.174;2023-02-28T08:35:12;3.43;;;3.33;;
673;SDS011;319;48.764;9.174;2023-02-28T08:37:39;3.57;;;3.47;;
673;SDS011;319;48.764;9.174;2023-02-28T08:40:06;3.17;;;3.10;;
673;SDS011;319;48.764;9.174;2023-02-28T08:42:36;2.50;;;2.50;;
673;SDS011;319;48.764;9.174;2023-02-28T08:45:03;2.70;;;2.70;;
673;SDS011;319;48.764;9.174;2023-02-28T08:47:31;2.70;;;2.70;;
673;SDS011;319;48.764;9.174;2023-02-28T08:49:58;2.07;;;2.07;;
673;SDS011;319;48.764;9.174;2023-02-28T08:52:25;2.50;;;2.50;;
673;SDS011;319;48.764;9.174;2023-02-28T08:54:52;2.40;;;2.40;;
673;SDS011;319;48.764;9.174;2023-02-28T08:57:18;2.70;;;2.70;;
673;SDS011;319;48.764;9.174;2023-02-28T08:59:46;2.60;;;2.60;;
673;SDS011;319;48.764;9.174;2023-02-28T09:02:13;2.80;;;2.80;;
673;SDS011;319;48.764;9.174;2023-02-28T09:04:46;2.50;;;2.50;;
673;SDS011;319;48.764;9.174;2023-02-28T09:07:13;2.50;;;2.50;;
673;SDS011;319;48.764;9.174;2023-02-28T09:09:40;2.63;;;2.63;;
673;SDS011;319;48.764;9.174;2023-02-28T09:12:19;2.73;;;2.73;;
673;SDS011;319;48.764;9.174;2023-02-28T09:14:47;2.70;;;2.70;;
673;SDS011;319;48.764;9.174;2023-02-28T09:17:13;2.80;;;2.80;;
673;SDS011;319;48.764;9.174;2023-02-28T09:19:41;2.30;;;2.30;;
673;SDS011;319;48.764;9.174;2023-02-28T09:22:08;2.60;;;2.60;;
673;SDS011;319;48.764;9.174;2023-02-28T09:24:35;2.50;;;2.50;;
673;SDS011;319;48.764;9.174;2023-02-28T09:27:02;2.60;;;2.60;;
673;SDS011;319;48.764;9.174;2023-02-28T09:29:29;3.00;;;3.00;;
673;SDS011;319;48.764;9.174;2023-02-28T09:31:58;2.70;;;2.70;;
673;SDS011;319;48.764;9.174;2023-02-28T09:34:25;2.40;;;2.40;;
673;SDS011;319;48.764;9.174;2023-02-28T09:36:52;2.70;;;2.70;;
673;SDS011;319;48.764;9.174;2023-02-28T09:39:19;2.50;;;2.50;;
673;SDS011;319;48.764;9.174;2023-02-28T09:41:47;2.50;;;2.50;;
673;SDS011;319;48.764;9.174;2023-02-28T09:44:18;2.40;;;2.40;;
673;SDS011;319;48.764;9.174;2023-02-28T09:46:51;2.40;;;2.40;;
673;SDS011;319;48.764;9.174;2023-02-28T09:49:28;2.20;;;2.20;;
673;SDS011;319;48.764;9.174;2023-02-28T09:52:01;2.67;;;2.67;;
673;SDS011;319;48.764;9.174;2023-02-28T09:54:31;2.40;;;2.40;;
673;SDS011;319;48.764;9.174;2023-02-28T09:56:59;2.50;;;2.50;;
673;SDS011;319;48.764;9.174;2023-02-28T09:59:36;2.30;;;2.30;;
673;SDS011;319;48.764;9.174;2023-02-28T10:02:18;3.40;;;3.30;;
673;SDS011;319;48.764;9.174;2023-02-28T10:05:04;2.70;;;2.70;;
673;SDS011;319;48.764;9.174;2023-02-28T10:07:37;3.00;;;3.00;;
673;SDS011;319;48.764;9.174;2023-02-28T10:10:18;3.20;;;3.10;;
673;SDS011;319;48.764;9.174;2023-02-28T10:12:47;2.87;;;2.87;;
673;SDS011;319;48.764;9.174;2023-02-28T10:15:18;2.70;;;2.70;;
673;SDS011;319;48.764;9.174;2023-02-28T10:17:47;2.80;;;2.80;;
673;SDS011;319;48.764;9.174;2023-02-28T10:20:21;2.90;;;2.90;;
673;SDS011;319;48.764;9.174;2023-02-28T10:22:57;2.60;;;2.60;;
673;SDS011;319;48.764;9.174;2023-02-28T10:25:32;2.97;;;2.97;;
673;SDS011;319;48.764;9.174;2023-02-28T10:28:01;2.90;;;2.90;;
673;SDS011;319;48.764;9.174;2023-02-28T10:30:36;2.80;;;2.80;;
673;SDS011;319;48.764;9.174;2023-02-28T10:33:08;2.90;;;2.90;;
673;SDS011;319;48.764;9.174;2023-02-28T10:35:46;2.90;;;2.90;;
673;SDS011;319;48.764;9.174;2023-02-28T10:38:15;2.90;;;2.90;;
673;SDS011;319;48.764;9.174;2023-02-28T10:40:44;3.00;;;3.00;;
673;SDS011;319;48.764;9.174;2023-02-28T10:43:18;2.50;;;2.50;;
673;SDS011;319;48.764;9.174;2023-02-28T10:45:57;2.30;;;2.30;;
673;SDS011;319;48.764;9.174;2023-02-28T10:48:29;2.40;;;2.40;;
673;SDS011;319;48.764;9.174;2023-02-28T10:51:01;2.20;;;2.20;;
673;SDS011;319;48.764;9.174;2023-02-28T10:53:31;3.90;;;3.80;;
673;SDS011;319;48.764;9.174;2023-02-28T10:56:01;7.00;;;6.80;;
673;SDS011;319;48.764;9.174;2023-02-28T10:58:30;5.90;;;5.80;;
673;SDS011;319;48.764;9.174;2023-02-28T11:01:10;7.30;;;7.10;;
673;SDS011;319;48.764;9.174;2023-02-28T11:03:40;7.00;;;6.80;;
673;SDS011;319;48.764;9.174;2023-02-28T11:06:12;6.30;;;6.20;;
673;SDS011;319;48.764;9.174;2023-02-28T11:08:44;6.53;;;6.43;;
673;SDS011;319;48.764;9.174;2023-02-28T11:11:12;7.10;;;6.90;;
673;SDS011;319;48.764;9.174;2023-02-28T11:13:42;6.30;;;6.20;;
673;SDS011;319;48.764;9.174;2023-02-28T11:16:11;6.10;;;6.00;;
673;SDS011;319;48.764;9.174;2023-02-28T11:18:40;7.60;;;7.40;;
673;SDS011;319;48.764;9.174;2023-02-28T11:21:16;7.70;;;7.50;;
673;SDS011;319;48.764;9.174;2023-02-28T11:23:47;7.40;;;7.20;;
673;SDS011;319;48.764;9.174;2023-02-28T11:26:16;6.47;;;6.37;;
673;SDS011;319;48.764;9.174;2023-02-28T11:29:03;7.20;;;7.00;;
673;SDS011;319;48.764;9.174;2023-02-28T11:31:37;7.00;;;6.80;;
673;SDS011;319;48.764;9.174;2023-02-28T11:36:54;6.93;;;6.73;;
673;SDS011;319;48.764;9.174;2023-02-28T11:39:23;5.63;;;5.53;;
673;SDS011;319;48.764;9.174;2023-02-28T11:41:55;7.70;;;7.50;;
673;SDS011;319;48.764;9.174;2023-02-28T11:44:37;5.20;;;5.10;;
673;SDS011;319;48.764;9.174;2023-02-28T11:47:17;6.90;;;6.70;;
673;SDS011;319;48.764;9.174;2023-02-28T11:49:56;4.40;;;4.30;;
673;SDS011;319;48.764;9.174;2023-02-28T11:52:36;1.50;;;1.50;;
673;SDS011;319;48.764;9.174;2023-02-28T11:55:12;4.90;;;4.80;;
673;SDS011;319;48.764;9.174;2023-02-28T11:57:56;4.77;;;4.67;;
673;SDS011;319;48.764;9.174;2023-02-28T12:00:32;3.90;;;3.80;;
673;SDS011;319;48.764;9.174;2023-02-28T12:03:22;4.80;;;4.70;;
673;SDS011;319;48.764;9.174;2023-02-28T12:05:56;6.00;;;5.90;;
673;SDS011;319;48.764;9.174;2023-02-28T12:08:37;2.20;;;2.20;;
673;SDS011;319;48.764;9.174;2023-02-28T12:11:11;2.60;;;2.60;;
673;SDS011;319;48.764;9.174;2023-02-28T12:13:46;2.00;;;2.00;;
673;SDS011;319;48.764;9.174;2023-02-28T12:16:23;1.73;;;1.73;;
673;SDS011;319;48.764;9.174;2023-02-28T12:19:00;1.70;;;1.70;;
673;SDS011;319;48.764;9.174;2023-02-28T12:21:40;4.30;;;4.20;;
673;SDS011;319;48.764;9.174;2023-02-28T12:24:33;4.80;;;4.70;;
673;SDS011;319;48.764;9.174;2023-02-28T12:27:13;4.60;;;4.50;;
673;SDS011;319;48.764;9.174;2023-02-28T12:29:44;5.00;;;4.90;;
673;SDS011;319;48.764;9.174;2023-02-28T12:32:16;2.60;;;2.60;;
673;SDS011;319;48.764;9.174;2023-02-28T12:34:47;4.20;;;4.10;;
673;SDS011;319;48.764;9.174;2023-02-28T12:37:19;3.90;;;3.80;;
673;SDS011;319;48.764;9.174;2023-02-28T12:39:54;4.10;;;4.00;;
673;SDS011;319;48.764;9.174;2023-02-28T12:42:26;2.87;;;2.87;;
673;SDS011;319;48.764;9.174;2023-02-28T12:44:56;4.00;;;3.90;;
673;SDS011;319;48.764;9.174;2023-02-28T12:47:27;3.87;;;3.77;;
673;SDS011;319;48.764;9.174;2023-02-28T12:49:55;2.80;;;2.80;;
673;SDS011;319;48.764;9.174;2023-02-28T12:52:25;3.90;;;3.80;;
673;SDS011;319;48.764;9.174;2023-02-28T12:54:59;4.10;;;4.00;;
673;SDS011;319;48.764;9.174;2023-02-28T12:57:32;3.20;;;3.10;;
673;SDS011;319;48.764;9.174;2023-02-28T13:00:03;3.27;;;3.17;;
673;SDS011;319;48.764;9.174;2023-02-28T13:05:49;3.03;;;3.00;;
673;SDS011;319;48.764;9.174;2023-02-28T13:08:38;1.20;;;1.20;;
673;SDS011;319;48.764;9.174;2023-02-28T13:11:24;1.20;;;1.20;;
673;SDS011;319;48.764;9.174;2023-02-28T13:13:57;1.20;;;1.20;;
673;SDS011;319;48.764;9.174;2023-02-28T13:16:26;1.20;;;1.20;;
673;SDS011;319;48.764;9.174;2023-02-28T13:18:53;1.20;;;1.20;;
673;SDS011;319;48.764;9.174;2023-02-28T13:21:41;1.30;;;1.30;;
673;SDS011;319;48.764;9.174;2023-02-28T13:24:10;1.20;;;1.20;;
673;SDS011;319;48.764;9.174;2023-02-28T13:29:57;1.30;;;1.30;;
673;SDS011;319;48.764;9.174;2023-02-28T13:32:31;1.20;;;1.20;;
673;SDS011;319;48.764;9.174;2023-02-28T13:38:24;1.20;;;1.20;;
673;SDS011;319;48.764;9.174;2023-02-28T13:44:05;1.20;;;1.20;;
673;SDS011;319;48.764;9.174;2023-02-28T13:46:35;1.20;;;1.20;;
673;SDS011;319;48.764;9.174;2023-02-28T13:49:24;1.20;;;1.20;;
673;SDS011;319;48.764;9.174;2023-02-28T13:51:54;1.20;;;1.20;;
673;SDS011;319;48.764;9.174;2023-02-28T13:54:40;1.20;;;1.20;;
673;SDS011;319;48.764;9.174;2023-02-28T13:57:20;1.20;;;1.20;;
673;SDS011;319;48.764;9.174;2023-02-28T13:59:59;1.10;;;1.10;;
673;SDS011;319;48.764;9.174;2023-02-28T14:03:04;1.20;;;1.20;;
673;SDS011;319;48.764;9.174;2023-02-28T14:05:42;1.20;;;1.20;;
673;SDS011;319;48.764;9.174;2023-02-28T14:08:12;1.20;;;1.20;;
673;SDS011;319;48.764;9.174;2023-02-28T14:10:43;1.27;;;1.27;;
673;SDS011;319;48.764;9.174;2023-02-28T14:13:13;1.20;;;1.20;;
673;SDS011;319;48.764;9.174;2023-02-28T14:15:55;1.20;;;1.20;;
673;SDS011;319;48.764;9.174;2023-02-28T14:18:26;1.20;;;1.20;;
673;SDS011;319;48.764;9.174;2023-02-28T14:21:08;1.20;;;1.20;;
673;SDS011;319;48.764;9.174;2023-02-28T14:23:50;1.20;;;1.20;;
673;SDS011;319;48.764;9.174;2023-02-28T14:26:57;1.20;;;1.20;;
673;SDS011;319;48.764;9.174;2023-02-28T14:29:58;1.23;;;1.23;;
673;SDS011;319;48.764;9.174;2023-02-28T14:32:47;1.20;;;1.20;;
673;SDS011;319;48.764;9.174;2023-02-28T14:35:27;1.10;;;1.10;;
673;SDS011;319;48.764;9.174;2023-02-28T14:38:07;1.17;;;1.17;;
673;SDS011;319;48.764;9.174;2023-02-28T14:40:43;1.30;;;1.30;;
673;SDS011;319;48.764;9.174;2023-02-28T14:43:19;1.20;;;1.20;;
673;SDS011;319;48.764;9.174;2023-02-28T14:45:49;1.20;;;1.20;;
673;SDS011;319;48.764;9.174;2023-02-28T14:48:17;1.20;;;1.20;;
673;SDS011;319;48.764;9.174;2023-02-28T14:50:49;1.20;;;1.20;;
673;SDS011;319;48.764;9.174;2023-02-28T14:53:18;1.20;;;1.20;;
673;SDS011;319;48.764;9.174;2023-02-28T14:55:51;1.20;;;1.20;;
673;SDS011;319;48.764;9.174;2023-02-28T14:58:23;1.20;;;1.20;;
673;SDS011;319;48.764;9.174;2023-02-28T15:01:10;1.10;;;1.10;;
673;SDS011;319;48.764;9.174;2023-02-28T15:03:38;1.30;;;1.30;;
673;SDS011;319;48.764;9.174;2023-02-28T15:06:14;1.20;;;1.20;;
673;SDS011;319;48.764;9.174;2023-02-28T15:08:42;1.20;;;1.20;;
673;SDS011;319;48.764;9.174;2023-02-28T15:11:16;1.20;;;1.20;;
673;SDS011;319;48.764;9.174;2023-02-28T15:13:47;1.20;;;1.20;;
673;SDS011;319;48.764;9.174;2023-02-28T15:17:05;1.20;;;1.20;;
673;SDS011;319;48.764;9.174;2023-02-28T15:19:41;1.20;;;1.20;;
673;SDS011;319;48.764;9.174;2023-02-28T15:28:47;1.20;;;1.20;;
673;SDS011;319;48.764;9.174;2023-02-28T15:31:26;1.20;;;1.20;;
673;SDS011;319;48.764;9.174;2023-02-28T15:34:02;1.20;;;1.20;;
673;SDS011;319;48.764;9.174;2023-02-28T15:36:38;1.40;;;1.40;;
673;SDS011;319;48.764;9.174;2023-02-28T15:58:58;1.30;;;1.30;;
673;SDS011;319;48.764;9.174;2023-02-28T16:01:34;1.20;;;1.20;;
673;SDS011;319;48.764;9.174;2023-02-28T16:04:03;1.23;;;1.23;;
673;SDS011;319;48.764;9.174;2023-02-28T16:06:32;1.20;;;1.20;;
673;SDS011;319;48.764;9.174;2023-02-28T16:09:01;1.20;;;1.20;;
673;SDS011;319;48.764;9.174;2023-02-28T16:11:31;1.20;;;1.20;;
673;SDS011;319;48.764;9.174;2023-02-28T16:14:02;1.30;;;1.30;;
673;SDS011;319;48.764;9.174;2023-02-28T16:16:29;1.30;;;1.30;;
673;SDS011;319;48.764;9.174;2023-02-28T16:18:58;1.20;;;1.20;;
673;SDS011;319;48.764;9.174;2023-02-28T16:21:25;1.30;;;1.30;;
673;SDS011;319;48.764;9.174;2023-02-28T16:23:53;1.20;;;1.20;;
673;SDS011;319;48.764;9.174;2023-02-28T16:26:21;1.10;;;1.10;;
673;SDS011;319;48.764;9.174;2023-02-28T16:28:52;1.20;;;1.20;;
673;SDS011;319;48.764;9.174;2023-02-28T16:31:21;1.30;;;1.30;;
673;SDS011;319;48.764;9.174;2023-02-28T16:33:47;1.20;;;1.20;;
673;SDS011;319;48.764;9.174;2023-02-28T16:36:15;8.77;;;8.37;;
673;SDS011;319;48.764;9.174;2023-02-28T16:38:43;1.20;;;1.20;;
673;SDS011;319;48.764;9.174;2023-02-28T16:41:11;1.40;;;1.40;;
673;SDS011;319;48.764;9.174;2023-02-28T16:43:43;1.20;;;1.20;;
673;SDS011;319;48.764;9.174;2023-02-28T16:46:14;1.20;;;1.20;;
673;SDS011;319;48.764;9.174;2023-02-28T16:48:43;1.20;;;1.20;;
673;SDS011;319;48.764;9.174;2023-02-28T16:51:11;1.30;;;1.30;;
673;SDS011;319;48.764;9.174;2023-02-28T16:53:38;1.20;;;1.20;;
673;SDS011;319;48.764;9.174;2023-02-28T16:56:06;1.20;;;1.20;;
673;SDS011;319;48.764;9.174;2023-02-28T16:58:39;1.30;;;1.30;;
673;SDS011;319;48.764;9.174;2023-02-28T17:01:05;1.30;;;1.30;;